createdAt,value
2017-09-26T00:00:13.650Z,997.26
2017-09-26T00:01:13.683Z,997.26
2017-09-26T00:02:13.636Z,997.21
2017-09-26T00:03:14.289Z,997.20
2017-09-26T00:04:14.325Z,997.19
2017-09-26T00:05:14.913Z,997.15
2017-09-26T00:06:14.948Z,997.10
2017-09-26T00:07:14.571Z,997.15
2017-09-26T00:08:14.605Z,997.17
2017-09-26T00:09:15.161Z,997.14
2017-09-26T00:10:14.899Z,997.17
2017-09-26T00:11:15.028Z,997.18
2017-09-26T00:12:14.379Z,997.17
2017-09-26T00:13:14.316Z,997.12
2017-09-26T00:14:14.477Z,997.12
2017-09-26T00:15:14.415Z,997.10
2017-09-26T00:16:13.739Z,997.11
2017-09-26T00:17:13.779Z,997.17
2017-09-26T00:18:13.712Z,997.11
2017-09-26T00:19:13.745Z,997.12
2017-09-26T00:20:13.762Z,997.06
2017-09-26T00:21:14.399Z,997.10
2017-09-26T00:22:14.627Z,997.11
2017-09-26T00:23:14.961Z,997.10
2017-09-26T00:24:14.579Z,997.04
2017-09-26T00:25:15.033Z,997.15
2017-09-26T00:26:15.062Z,997.17
2017-09-26T00:27:14.994Z,997.10
2017-09-26T00:28:15.124Z,997.14
2017-09-26T00:29:14.348Z,997.18
2017-09-26T00:30:14.381Z,997.12
2017-09-26T00:31:14.409Z,997.14
2017-09-26T00:32:14.543Z,997.09
2017-09-26T00:33:13.768Z,997.14
2017-09-26T00:34:13.797Z,997.16
2017-09-26T00:35:13.837Z,997.09
2017-09-26T00:36:13.868Z,997.09
2017-09-26T00:37:13.803Z,997.07
2017-09-26T00:38:14.439Z,997.14
2017-09-26T00:39:14.683Z,997.06
2017-09-26T00:40:15.038Z,997.16
2017-09-26T00:41:14.876Z,997.15
2017-09-26T00:42:15.012Z,997.19
2017-09-26T00:43:15.049Z,997.14
2017-09-26T00:44:14.789Z,997.19
2017-09-26T00:45:14.716Z,997.20
2017-09-26T00:46:14.653Z,997.12
2017-09-26T00:47:14.579Z,997.16
2017-09-26T00:48:13.805Z,997.18
2017-09-26T00:49:14.859Z,997.14
2017-09-26T00:50:14.983Z,997.17
2017-09-26T00:51:14.013Z,997.22
2017-09-26T00:52:16.890Z,997.16
2017-09-26T00:53:13.885Z,997.19
2017-09-26T00:54:14.512Z,997.09
2017-09-26T00:55:15.053Z,997.18
2017-09-26T00:56:14.577Z,997.16
2017-09-26T00:57:14.789Z,997.20
2017-09-26T00:58:15.033Z,997.09
2017-09-26T00:59:14.558Z,997.14
2017-09-26T01:03:10.042Z,997.19
2017-09-26T01:03:10.650Z,997.13
2017-09-26T01:03:11.471Z,997.19
2017-09-26T01:03:13.888Z,997.22
2017-09-26T01:05:49.321Z,997.15
2017-09-26T01:05:50.030Z,997.20
2017-09-26T01:09:05.368Z,997.18
2017-09-26T01:09:05.980Z,997.28
2017-09-26T01:09:06.903Z,997.26
2017-09-26T01:11:56.586Z,997.28
2017-09-26T01:11:57.491Z,997.25
2017-09-26T01:11:58.517Z,997.22
2017-09-26T01:15:08.180Z,997.24
2017-09-26T01:15:08.889Z,997.27
2017-09-26T01:15:09.915Z,997.22
2017-09-26T01:17:46.915Z,997.20
2017-09-26T01:17:47.730Z,997.24
2017-09-26T01:17:48.368Z,997.23
2017-09-26T01:20:28.978Z,997.22
2017-09-26T01:20:29.586Z,997.21
2017-09-26T01:20:30.400Z,997.21
2017-09-26T01:23:43.499Z,997.19
2017-09-26T01:23:44.211Z,997.28
2017-09-26T01:23:45.336Z,997.21
2017-09-26T01:26:29.775Z,997.24
2017-09-26T01:26:30.385Z,997.20
2017-09-26T01:26:31.303Z,997.24
2017-09-26T01:29:45.492Z,997.19
2017-09-26T01:29:46.500Z,997.21
2017-09-26T01:29:47.211Z,997.24
2017-09-26T01:32:32.045Z,997.26
2017-09-26T01:32:32.651Z,997.23
2017-09-26T01:32:33.466Z,997.22
2017-09-26T01:35:46.970Z,997.24
2017-09-26T01:35:47.681Z,997.22
2017-09-26T01:35:48.392Z,997.25
2017-09-26T01:39:10.161Z,997.27
2017-09-26T01:39:10.769Z,997.25
2017-09-26T01:39:11.581Z,997.26
2017-09-26T01:41:47.713Z,997.21
2017-09-26T01:41:48.525Z,997.28
2017-09-26T01:41:49.134Z,997.22
2017-09-26T01:44:34.875Z,997.27
2017-09-26T01:44:35.483Z,997.22
2017-09-26T01:44:36.501Z,997.24
2017-09-26T01:45:14.188Z,997.26
2017-09-26T01:47:46.825Z,997.28
2017-09-26T01:47:47.638Z,997.34
2017-09-26T01:50:29.246Z,997.28
2017-09-26T01:50:30.061Z,997.25
2017-09-26T01:50:30.977Z,997.23
2017-09-26T01:53:46.963Z,997.19
2017-09-26T01:53:47.775Z,997.26
2017-09-26T01:53:48.484Z,997.30
2017-09-26T01:56:32.239Z,997.22
2017-09-26T01:56:33.373Z,997.26
2017-09-26T01:56:34.454Z,997.25
2017-09-26T01:59:47.967Z,997.23
2017-09-26T01:59:48.778Z,997.27
2017-09-26T01:59:49.786Z,997.31
2017-09-26T02:00:14.260Z,997.30
2017-09-26T02:01:14.684Z,997.24
2017-09-26T02:02:14.832Z,997.29
2017-09-26T02:03:15.285Z,997.34
2017-09-26T02:04:15.121Z,997.28
2017-09-26T02:05:15.565Z,997.30
2017-09-26T02:06:15.603Z,997.27
2017-09-26T02:07:15.448Z,997.31
2017-09-26T02:08:15.291Z,997.23
2017-09-26T02:09:15.330Z,997.30
2017-09-26T02:10:14.772Z,997.29
2017-09-26T02:11:14.710Z,997.23
2017-09-26T02:12:14.844Z,997.26
2017-09-26T02:13:14.808Z,997.32
2017-09-26T02:14:14.134Z,997.29
2017-09-26T02:15:14.163Z,997.31
2017-09-26T02:16:14.193Z,997.30
2017-09-26T02:17:14.153Z,997.28
2017-09-26T02:18:14.083Z,997.36
2017-09-26T02:19:14.823Z,997.35
2017-09-26T02:20:15.397Z,997.39
2017-09-26T02:21:15.332Z,997.43
2017-09-26T02:22:15.467Z,997.31
2017-09-26T02:23:15.305Z,997.33
2017-09-26T02:24:15.436Z,997.33
2017-09-26T02:25:15.384Z,997.31
2017-09-26T02:26:15.418Z,997.29
2017-09-26T02:27:15.459Z,997.29
2017-09-26T02:28:14.789Z,997.33
2017-09-26T02:29:14.138Z,997.31
2017-09-26T02:30:14.175Z,997.35
2017-09-26T02:31:14.214Z,997.33
2017-09-26T02:32:14.249Z,997.33
2017-09-26T02:33:14.197Z,997.25
2017-09-26T02:34:14.150Z,997.25
2017-09-26T02:35:14.800Z,997.23
2017-09-26T02:36:14.950Z,997.27
2017-09-26T02:37:14.691Z,997.32
2017-09-26T02:38:15.537Z,997.29
2017-09-26T02:39:15.388Z,997.25
2017-09-26T02:40:15.532Z,997.27
2017-09-26T02:41:15.376Z,997.28
2017-09-26T02:42:15.524Z,997.32
2017-09-26T02:43:14.855Z,997.29
2017-09-26T02:44:14.901Z,997.32
2017-09-26T02:45:14.848Z,997.28
2017-09-26T02:46:14.183Z,997.25
2017-09-26T02:47:14.221Z,997.32
2017-09-26T02:48:14.273Z,997.30
2017-09-26T02:49:14.218Z,997.30
2017-09-26T02:50:14.261Z,997.40
2017-09-26T02:51:14.211Z,997.39
2017-09-26T02:52:14.251Z,997.32
2017-09-26T02:53:14.193Z,997.36
2017-09-26T02:54:15.442Z,997.43
2017-09-26T02:55:15.680Z,997.34
2017-09-26T02:56:15.441Z,997.35
2017-09-26T02:57:15.478Z,997.38
2017-09-26T02:58:15.529Z,997.40
2017-09-26T02:59:15.473Z,997.27
2017-09-26T03:00:15.526Z,997.30
2017-09-26T03:01:14.869Z,997.37
2017-09-26T03:02:14.925Z,997.38
2017-09-26T03:03:14.275Z,997.37
2017-09-26T03:04:14.231Z,997.40
2017-09-26T03:05:14.294Z,997.40
2017-09-26T03:06:14.357Z,997.32
2017-09-26T03:07:14.390Z,997.34
2017-09-26T03:08:14.348Z,997.44
2017-09-26T03:09:14.392Z,997.40
2017-09-26T03:10:14.341Z,997.37
2017-09-26T03:11:15.594Z,997.40
2017-09-26T03:12:18.180Z,997.40
2017-09-26T03:14:06.214Z,997.41
2017-09-26T03:14:07.235Z,997.43
2017-09-26T03:14:14.461Z,997.44
2017-09-26T03:15:15.615Z,997.38
2017-09-26T03:16:15.774Z,997.37
2017-09-26T03:17:15.008Z,997.37
2017-09-26T03:18:14.954Z,997.35
2017-09-26T03:19:15.007Z,997.37
2017-09-26T03:20:15.163Z,997.37
2017-09-26T03:21:14.396Z,997.39
2017-09-26T03:22:14.343Z,997.36
2017-09-26T03:23:14.500Z,997.31
2017-09-26T03:24:14.445Z,997.38
2017-09-26T03:25:14.423Z,997.30
2017-09-26T03:26:14.371Z,997.30
2017-09-26T03:27:15.114Z,997.34
2017-09-26T03:28:15.674Z,997.34
2017-09-26T03:29:15.544Z,997.28
2017-09-26T03:30:15.645Z,997.28
2017-09-26T03:31:15.588Z,997.37
2017-09-26T03:32:15.127Z,997.32
2017-09-26T03:33:15.688Z,997.32
2017-09-26T03:34:15.124Z,997.35
2017-09-26T03:35:15.074Z,997.37
2017-09-26T03:36:15.422Z,997.43
2017-09-26T03:37:15.066Z,997.37
2017-09-26T03:38:15.120Z,997.43
2017-09-26T03:39:14.448Z,997.51
2017-09-26T03:40:14.499Z,997.43
2017-09-26T03:41:14.449Z,997.46
2017-09-26T03:42:14.484Z,997.47
2017-09-26T03:43:14.435Z,997.51
2017-09-26T03:44:15.678Z,997.52
2017-09-26T03:45:15.316Z,997.51
2017-09-26T03:46:15.656Z,997.45
2017-09-26T03:47:15.287Z,997.49
2017-09-26T03:48:15.641Z,997.51
2017-09-26T03:49:15.685Z,997.48
2017-09-26T03:50:15.027Z,997.52
2017-09-26T03:51:15.076Z,997.54
2017-09-26T03:52:15.224Z,997.55
2017-09-26T03:53:15.274Z,997.48
2017-09-26T03:54:15.137Z,997.57
2017-09-26T03:55:14.475Z,997.49
2017-09-26T03:56:14.418Z,997.46
2017-09-26T03:57:14.460Z,997.51
2017-09-26T03:58:14.620Z,997.52
2017-09-26T03:59:14.564Z,997.53
2017-09-26T04:00:14.605Z,997.52
2017-09-26T04:01:14.447Z,997.49
2017-09-26T04:02:15.703Z,997.56
2017-09-26T04:03:15.947Z,997.51
2017-09-26T04:04:15.706Z,997.56
2017-09-26T04:05:15.759Z,997.55
2017-09-26T04:06:15.705Z,997.54
2017-09-26T04:07:15.049Z,997.50
2017-09-26T04:08:15.185Z,997.50
2017-09-26T04:09:15.052Z,997.53
2017-09-26T04:10:14.484Z,997.50
2017-09-26T04:11:15.257Z,997.57
2017-09-26T04:12:14.489Z,997.52
2017-09-26T04:13:14.645Z,997.53
2017-09-26T04:14:14.504Z,997.53
2017-09-26T04:15:14.645Z,997.54
2017-09-26T04:16:14.619Z,997.52
2017-09-26T04:17:14.465Z,997.54
2017-09-26T04:18:15.807Z,997.53
2017-09-26T04:19:15.755Z,997.60
2017-09-26T04:20:15.804Z,997.58
2017-09-26T04:21:15.857Z,997.61
2017-09-26T04:22:15.830Z,997.59
2017-09-26T04:23:15.882Z,997.61
2017-09-26T04:24:15.136Z,997.59
2017-09-26T04:25:15.962Z,997.57
2017-09-26T04:26:15.193Z,997.61
2017-09-26T04:27:14.531Z,997.57
2017-09-26T04:28:14.573Z,997.61
2017-09-26T04:29:14.613Z,997.63
2017-09-26T04:30:14.668Z,997.68
2017-09-26T04:31:14.624Z,997.64
2017-09-26T04:32:14.683Z,997.68
2017-09-26T04:33:14.617Z,997.69
2017-09-26T04:34:15.261Z,997.72
2017-09-26T04:35:15.819Z,997.65
2017-09-26T04:36:15.774Z,1004.59
2017-09-26T04:37:15.822Z,997.76
2017-09-26T04:38:15.555Z,997.72
2017-09-26T04:39:15.808Z,997.73
2017-09-26T04:40:16.244Z,997.72
2017-09-26T04:41:15.376Z,997.76
2017-09-26T04:42:15.223Z,997.72
2017-09-26T04:43:15.565Z,997.80
2017-09-26T04:44:15.504Z,997.75
2017-09-26T04:45:15.435Z,997.81
2017-09-26T04:46:15.479Z,997.74
2017-09-26T04:47:14.701Z,997.76
2017-09-26T04:48:14.748Z,997.74
2017-09-26T04:49:14.784Z,997.73
2017-09-26T04:50:14.727Z,997.72
2017-09-26T04:51:14.768Z,997.79
2017-09-26T04:52:14.689Z,997.72
2017-09-26T04:53:15.461Z,997.68
2017-09-26T04:54:15.573Z,997.79
2017-09-26T04:55:15.735Z,997.79
2017-09-26T04:56:16.254Z,997.77
2017-09-26T04:57:15.579Z,997.69
2017-09-26T04:58:15.421Z,997.87
2017-09-26T04:59:15.651Z,997.77
2017-09-26T05:00:15.397Z,997.79
2017-09-26T05:01:15.426Z,997.82
2017-09-26T05:02:15.653Z,997.87
2017-09-26T05:03:14.806Z,997.80
2017-09-26T05:04:14.757Z,997.79
2017-09-26T05:05:14.729Z,997.74
2017-09-26T05:06:14.754Z,997.86
2017-09-26T05:07:14.684Z,997.82
2017-09-26T05:08:15.520Z,997.86
2017-09-26T05:09:15.574Z,997.88
2017-09-26T05:10:15.994Z,997.91
2017-09-26T05:11:16.138Z,997.89
2017-09-26T05:12:16.429Z,997.88
2017-09-26T05:13:16.133Z,997.91
2017-09-26T05:14:15.371Z,997.82
2017-09-26T05:15:15.321Z,997.91
2017-09-26T05:16:15.361Z,997.91
2017-09-26T05:17:15.414Z,997.93
2017-09-26T05:18:15.476Z,997.97
2017-09-26T05:19:14.815Z,997.93
2017-09-26T05:20:14.759Z,997.98
2017-09-26T05:21:14.827Z,998.04
2017-09-26T05:22:14.864Z,998.02
2017-09-26T05:23:14.862Z,998.04
2017-09-26T05:24:14.907Z,998.00
2017-09-26T05:25:14.753Z,998.02
2017-09-26T05:26:15.501Z,998.04
2017-09-26T05:27:15.840Z,998.03
2017-09-26T05:28:16.079Z,998.05
2017-09-26T05:29:16.120Z,998.07
2017-09-26T05:30:16.167Z,998.16
2017-09-26T05:31:15.594Z,998.13
2017-09-26T05:32:16.141Z,998.11
2017-09-26T05:33:15.473Z,998.07
2017-09-26T05:34:15.505Z,998.10
2017-09-26T05:35:14.743Z,998.06
2017-09-26T05:36:16.331Z,998.18
2017-09-26T05:37:14.857Z,998.09
2017-09-26T05:38:15.619Z,998.17
2017-09-26T05:39:14.856Z,998.08
2017-09-26T05:40:14.887Z,998.23
2017-09-26T05:41:14.828Z,998.10
2017-09-26T05:42:14.854Z,998.16
2017-09-26T05:43:15.598Z,998.07
2017-09-26T05:44:16.126Z,998.09
2017-09-26T05:45:16.169Z,998.03
2017-09-26T05:46:16.117Z,998.04
2017-09-26T05:47:15.545Z,998.10
2017-09-26T05:48:16.184Z,998.06
2017-09-26T05:49:16.224Z,998.06
2017-09-26T05:50:15.687Z,998.06
2017-09-26T05:51:15.520Z,998.11
2017-09-26T05:52:15.577Z,998.02
2017-09-26T05:53:15.628Z,998.03
2017-09-26T05:54:15.623Z,998.00
2017-09-26T05:55:14.936Z,998.09
2017-09-26T05:56:14.984Z,998.10
2017-09-26T05:57:14.824Z,998.11
2017-09-26T05:58:14.857Z,998.14
2017-09-26T05:59:15.500Z,998.14
2017-09-26T06:00:16.204Z,998.16
2017-09-26T06:01:16.142Z,998.16
2017-09-26T06:02:16.386Z,998.11
2017-09-26T06:03:16.235Z,998.12
2017-09-26T06:04:16.287Z,998.17
2017-09-26T06:05:16.361Z,998.17
2017-09-26T06:06:15.498Z,998.17
2017-09-26T06:07:15.745Z,998.14
2017-09-26T06:08:15.577Z,998.21
2017-09-26T06:09:14.909Z,998.12
2017-09-26T06:10:15.658Z,998.13
2017-09-26T06:11:15.012Z,998.13
2017-09-26T06:12:14.960Z,998.18
2017-09-26T06:13:14.908Z,998.15
2017-09-26T06:14:15.085Z,998.18
2017-09-26T06:15:15.022Z,998.20
2017-09-26T06:16:15.056Z,998.19
2017-09-26T06:17:15.790Z,998.17
2017-09-26T06:18:15.726Z,998.21
2017-09-26T06:19:16.266Z,998.30
2017-09-26T06:20:16.213Z,998.30
2017-09-26T06:21:16.385Z,998.30
2017-09-26T06:22:16.336Z,998.23
2017-09-26T06:23:15.573Z,998.31
2017-09-26T06:24:15.732Z,998.29
2017-09-26T06:25:15.804Z,998.36
2017-09-26T06:26:14.941Z,998.28
2017-09-26T06:27:14.984Z,998.28
2017-09-26T06:28:14.969Z,998.30
2017-09-26T06:29:15.147Z,998.27
2017-09-26T06:30:14.985Z,998.31
2017-09-26T06:31:15.018Z,998.31
2017-09-26T06:32:15.062Z,998.35
2017-09-26T06:33:15.694Z,998.32
2017-09-26T06:34:15.729Z,998.28
2017-09-26T06:35:16.267Z,998.31
2017-09-26T06:36:16.227Z,998.35
2017-09-26T06:37:16.283Z,998.36
2017-09-26T06:38:16.212Z,998.37
2017-09-26T06:39:16.253Z,998.30
2017-09-26T06:40:15.484Z,998.33
2017-09-26T06:41:15.727Z,998.36
2017-09-26T06:42:15.967Z,998.37
2017-09-26T06:43:15.795Z,998.35
2017-09-26T06:44:15.032Z,998.37
2017-09-26T06:45:15.076Z,998.39
2017-09-26T06:46:15.226Z,998.47
2017-09-26T06:47:15.209Z,998.40
2017-09-26T06:48:15.049Z,998.43
2017-09-26T06:49:15.782Z,998.48
2017-09-26T06:50:15.747Z,998.43
2017-09-26T06:51:16.308Z,998.48
2017-09-26T06:52:16.356Z,998.50
2017-09-26T06:53:16.494Z,998.45
2017-09-26T06:54:16.332Z,998.46
2017-09-26T06:55:15.866Z,998.49
2017-09-26T06:56:15.804Z,998.44
2017-09-26T06:57:15.656Z,998.42
2017-09-26T06:58:15.799Z,998.51
2017-09-26T06:59:15.736Z,998.50
2017-09-26T07:00:15.131Z,998.47
2017-09-26T07:01:15.171Z,998.50
2017-09-26T07:02:15.124Z,998.48
2017-09-26T07:03:15.075Z,998.42
2017-09-26T07:04:15.155Z,998.44
2017-09-26T07:05:15.084Z,998.47
2017-09-26T07:06:15.108Z,998.47
2017-09-26T07:07:16.366Z,998.51
2017-09-26T07:08:16.310Z,998.48
2017-09-26T07:09:16.355Z,998.52
2017-09-26T07:10:15.803Z,998.49
2017-09-26T07:11:15.925Z,998.47
2017-09-26T07:12:15.964Z,998.49
2017-09-26T07:13:15.805Z,998.54
2017-09-26T07:14:15.848Z,998.49
2017-09-26T07:15:15.886Z,998.43
2017-09-26T07:16:15.115Z,998.47
2017-09-26T07:17:15.962Z,998.52
2017-09-26T07:18:16.132Z,998.53
2017-09-26T07:19:15.159Z,998.49
2017-09-26T07:20:15.203Z,998.54
2017-09-26T07:21:15.147Z,998.53
2017-09-26T07:22:15.276Z,998.53
2017-09-26T07:23:15.143Z,998.47
2017-09-26T07:24:15.273Z,998.53
2017-09-26T07:25:15.103Z,998.54
2017-09-26T07:26:16.474Z,998.53
2017-09-26T07:27:16.414Z,998.53
2017-09-26T07:28:16.462Z,998.57
2017-09-26T07:29:16.701Z,998.55
2017-09-26T07:30:16.547Z,998.56
2017-09-26T07:31:15.774Z,998.50
2017-09-26T07:32:16.216Z,998.57
2017-09-26T07:33:15.972Z,998.55
2017-09-26T07:34:17.019Z,998.60
2017-09-26T07:35:15.259Z,998.51
2017-09-26T07:36:16.100Z,998.56
2017-09-26T07:37:15.237Z,998.57
2017-09-26T07:38:15.171Z,998.51
2017-09-26T07:39:15.303Z,998.56
2017-09-26T07:40:15.332Z,998.54
2017-09-26T07:41:15.957Z,998.55
2017-09-26T07:42:15.984Z,998.47
2017-09-26T07:43:16.121Z,998.44
2017-09-26T07:44:16.569Z,998.51
2017-09-26T07:45:16.513Z,998.54
2017-09-26T07:46:15.874Z,998.48
2017-09-26T07:47:16.003Z,998.57
2017-09-26T07:48:15.942Z,998.54
2017-09-26T07:49:15.881Z,998.60
2017-09-26T07:50:15.924Z,998.54
2017-09-26T07:51:15.260Z,998.56
2017-09-26T07:52:15.296Z,998.60
2017-09-26T07:53:15.345Z,998.62
2017-09-26T07:54:15.285Z,998.55
2017-09-26T07:55:15.319Z,998.62
2017-09-26T07:56:15.263Z,998.56
2017-09-26T07:57:15.999Z,998.61
2017-09-26T07:58:16.640Z,998.52
2017-09-26T07:59:16.685Z,998.48
2017-09-26T08:00:17.188Z,998.50
2017-09-26T08:01:15.910Z,998.56
2017-09-26T08:02:16.758Z,998.52
2017-09-26T08:03:15.887Z,998.51
2017-09-26T08:04:16.140Z,998.51
2017-09-26T08:05:16.094Z,998.54
2017-09-26T08:06:15.311Z,998.52
2017-09-26T08:07:15.357Z,998.54
2017-09-26T08:08:15.390Z,998.55
2017-09-26T08:09:15.430Z,998.62
2017-09-26T08:10:15.379Z,998.50
2017-09-26T08:11:15.413Z,998.52
2017-09-26T08:12:15.258Z,998.59
2017-09-26T08:13:16.197Z,998.63
2017-09-26T08:14:16.748Z,998.63
2017-09-26T08:15:16.609Z,998.62
2017-09-26T08:16:16.751Z,998.60
2017-09-26T08:17:16.594Z,998.59
2017-09-26T08:18:16.737Z,998.65
2017-09-26T08:19:16.168Z,998.70
2017-09-26T08:20:15.909Z,998.69
2017-09-26T08:21:16.062Z,998.68
2017-09-26T08:22:16.203Z,998.68
2017-09-26T08:23:15.319Z,998.66
2017-09-26T08:24:15.472Z,998.76
2017-09-26T08:25:15.310Z,998.73
2017-09-26T08:26:15.344Z,998.68
2017-09-26T08:27:15.396Z,998.63
2017-09-26T08:28:15.529Z,998.66
2017-09-26T08:29:15.578Z,998.59
2017-09-26T08:30:15.527Z,998.53
2017-09-26T08:31:16.670Z,998.51
2017-09-26T08:32:16.617Z,998.60
2017-09-26T08:33:16.860Z,998.57
2017-09-26T08:34:16.601Z,998.58
2017-09-26T08:35:16.745Z,998.47
2017-09-26T08:36:16.882Z,998.59
2017-09-26T08:37:16.016Z,998.48
2017-09-26T08:38:16.258Z,998.51
2017-09-26T08:39:16.103Z,998.43
2017-09-26T08:40:15.430Z,998.46
2017-09-26T08:41:15.369Z,998.47
2017-09-26T08:42:15.418Z,998.44
2017-09-26T08:43:15.463Z,998.46
2017-09-26T08:44:15.405Z,998.46
2017-09-26T08:45:16.348Z,998.40
2017-09-26T08:46:16.080Z,998.39
2017-09-26T08:47:16.640Z,998.43
2017-09-26T08:48:16.680Z,998.41
2017-09-26T08:49:16.717Z,998.44
2017-09-26T08:50:16.874Z,998.42
2017-09-26T08:51:16.822Z,998.50
2017-09-26T08:52:16.776Z,998.47
2017-09-26T08:53:16.248Z,998.48
2017-09-26T08:54:16.051Z,998.46
2017-09-26T08:55:16.119Z,998.41
2017-09-26T08:56:15.456Z,998.43
2017-09-26T08:57:16.412Z,998.46
2017-09-26T08:58:15.534Z,998.43
2017-09-26T08:59:15.592Z,998.35
2017-09-26T09:00:15.513Z,998.42
2017-09-26T09:01:15.562Z,1005.42
2017-09-26T09:02:15.504Z,998.47
2017-09-26T09:03:16.156Z,998.50
2017-09-26T09:04:16.907Z,998.47
2017-09-26T09:05:16.975Z,998.49
2017-09-26T09:06:16.932Z,998.49
2017-09-26T09:07:17.000Z,998.50
2017-09-26T09:08:16.945Z,998.41
2017-09-26T09:09:16.891Z,998.49
2017-09-26T09:10:16.134Z,998.41
2017-09-26T09:11:16.287Z,998.55
2017-09-26T09:12:15.512Z,998.41
2017-09-26T09:13:15.558Z,998.39
2017-09-26T09:14:15.608Z,998.51
2017-09-26T09:15:15.707Z,998.49
2017-09-26T09:16:15.667Z,998.48
2017-09-26T09:17:15.503Z,998.59
2017-09-26T09:18:16.232Z,998.54
2017-09-26T09:19:16.365Z,998.62
2017-09-26T09:20:16.908Z,998.60
2017-09-26T09:21:16.846Z,998.60
2017-09-26T09:22:17.086Z,998.49
2017-09-26T09:23:16.930Z,998.59
2017-09-26T09:24:16.768Z,998.51
2017-09-26T09:25:17.009Z,998.50
2017-09-26T09:26:16.959Z,998.54
2017-09-26T09:27:16.291Z,998.52
2017-09-26T09:28:16.426Z,998.46
2017-09-26T09:29:16.367Z,998.52
2017-09-26T09:30:16.526Z,998.54
2017-09-26T09:31:15.553Z,998.51
2017-09-26T09:32:15.591Z,998.62
2017-09-26T09:33:15.640Z,998.55
2017-09-26T09:34:15.680Z,998.57
2017-09-26T09:35:15.717Z,998.64
2017-09-26T09:36:15.558Z,998.61
2017-09-26T09:37:16.403Z,998.64
2017-09-26T09:38:16.974Z,998.67
2017-09-26T09:39:16.708Z,998.75
2017-09-26T09:40:16.966Z,998.68
2017-09-26T09:41:17.117Z,998.71
2017-09-26T09:42:17.060Z,998.67
2017-09-26T09:43:16.301Z,998.74
2017-09-26T09:44:16.239Z,998.68
2017-09-26T09:45:16.289Z,998.76
2017-09-26T09:46:16.334Z,998.77
2017-09-26T09:47:15.571Z,998.77
2017-09-26T09:48:15.617Z,998.70
2017-09-26T09:49:15.666Z,998.78
2017-09-26T09:50:15.803Z,998.76
2017-09-26T09:51:15.757Z,998.80
2017-09-26T09:52:15.798Z,998.80
2017-09-26T09:53:15.644Z,998.84
2017-09-26T09:54:16.471Z,998.85
2017-09-26T09:55:17.130Z,998.82
2017-09-26T09:56:17.162Z,998.82
2017-09-26T09:57:17.112Z,998.85
2017-09-26T09:58:17.158Z,998.80
2017-09-26T09:59:17.002Z,998.78
2017-09-26T10:00:17.307Z,998.82
2017-09-26T10:01:16.456Z,998.79
2017-09-26T10:02:16.297Z,998.78
2017-09-26T10:03:16.540Z,998.81
2017-09-26T10:04:15.755Z,998.78
2017-09-26T10:05:15.726Z,998.82
2017-09-26T10:06:15.747Z,998.76
2017-09-26T10:07:15.887Z,998.72
2017-09-26T10:08:15.767Z,998.79
2017-09-26T10:09:15.779Z,998.77
2017-09-26T10:10:15.691Z,998.81
2017-09-26T10:11:16.522Z,998.81
2017-09-26T10:12:17.273Z,998.73
2017-09-26T10:13:17.009Z,998.70
2017-09-26T10:14:17.356Z,998.82
2017-09-26T10:15:17.306Z,998.76
2017-09-26T10:16:16.549Z,998.76
2017-09-26T10:17:16.389Z,998.78
2017-09-26T10:18:16.326Z,998.81
2017-09-26T10:19:16.464Z,998.76
2017-09-26T10:20:16.709Z,998.78
2017-09-26T10:21:16.640Z,998.74
2017-09-26T10:22:15.866Z,998.77
2017-09-26T10:23:17.017Z,998.77
2017-09-26T10:24:16.648Z,998.77
2017-09-26T10:25:15.780Z,998.83
2017-09-26T10:26:15.925Z,998.80
2017-09-26T10:27:15.949Z,998.77
2017-09-26T10:28:15.900Z,998.77
2017-09-26T10:29:15.815Z,998.73
2017-09-26T10:30:17.085Z,998.65
2017-09-26T10:31:17.025Z,998.73
2017-09-26T10:32:16.972Z,998.72
2017-09-26T10:33:16.604Z,998.67
2017-09-26T10:34:16.433Z,998.70
2017-09-26T10:35:16.392Z,998.64
2017-09-26T10:36:16.642Z,998.64
2017-09-26T10:37:15.763Z,998.62
2017-09-26T10:38:16.620Z,998.63
2017-09-26T10:39:16.664Z,998.73
2017-09-26T10:40:15.900Z,998.75
2017-09-26T10:41:15.991Z,998.63
2017-09-26T10:42:15.813Z,998.70
2017-09-26T10:43:15.846Z,998.75
2017-09-26T10:44:16.491Z,998.72
2017-09-26T10:45:17.141Z,998.72
2017-09-26T10:46:17.075Z,998.77
2017-09-26T10:47:17.111Z,998.70
2017-09-26T10:48:17.046Z,998.76
2017-09-26T10:49:17.095Z,998.85
2017-09-26T10:50:17.137Z,998.76
2017-09-26T10:51:16.472Z,998.85
2017-09-26T10:52:16.616Z,998.90
2017-09-26T10:53:15.844Z,998.89
2017-09-26T10:54:15.881Z,998.87
2017-09-26T10:55:15.924Z,998.95
2017-09-26T10:56:17.381Z,998.97
2017-09-26T10:57:15.899Z,998.88
2017-09-26T10:58:15.840Z,998.94
2017-09-26T10:59:16.580Z,998.94
2017-09-26T11:00:16.611Z,998.98
2017-09-26T11:01:21.177Z,998.97
2017-09-26T11:02:15.964Z,998.91
2017-09-26T11:03:17.127Z,999.00
2017-09-26T11:04:17.075Z,998.92
2017-09-26T11:05:17.140Z,998.93
2017-09-26T11:06:17.108Z,998.90
2017-09-26T11:07:17.162Z,998.88
2017-09-26T11:08:16.476Z,998.89
2017-09-26T11:09:16.624Z,998.94
2017-09-26T11:10:15.861Z,998.92
2017-09-26T11:11:16.616Z,998.88
2017-09-26T11:12:16.618Z,998.92
2017-09-26T11:13:15.971Z,998.92
2017-09-26T11:14:16.013Z,998.93
2017-09-26T11:15:16.033Z,998.92
2017-09-26T11:16:17.742Z,998.93
2017-09-26T11:17:15.960Z,998.93
2017-09-26T11:18:16.694Z,998.97
2017-09-26T11:19:17.145Z,998.89
2017-09-26T11:20:17.290Z,998.95
2017-09-26T11:21:17.129Z,998.92
2017-09-26T11:22:17.177Z,998.98
2017-09-26T11:23:17.225Z,998.94
2017-09-26T11:24:17.286Z,998.94
2017-09-26T11:25:16.649Z,998.86
2017-09-26T11:26:16.578Z,998.84
2017-09-26T11:27:17.352Z,998.86
2017-09-26T11:28:15.975Z,998.89
2017-09-26T11:29:16.729Z,998.82
2017-09-26T11:30:16.076Z,998.85
2017-09-26T11:31:16.154Z,998.79
2017-09-26T11:32:15.999Z,998.78
2017-09-26T11:33:15.936Z,998.83
2017-09-26T11:34:16.703Z,998.68
2017-09-26T11:35:17.250Z,998.69
2017-09-26T11:36:17.195Z,998.72
2017-09-26T11:37:17.250Z,998.72
2017-09-26T11:38:17.087Z,998.75
2017-09-26T11:39:17.442Z,998.70
2017-09-26T11:40:17.481Z,998.64
2017-09-26T11:41:16.611Z,998.66
2017-09-26T11:42:16.644Z,998.72
2017-09-26T11:43:16.688Z,998.71
2017-09-26T11:44:16.724Z,998.71
2017-09-26T11:45:16.861Z,998.63
2017-09-26T11:46:16.078Z,998.64
2017-09-26T11:47:16.032Z,998.59
2017-09-26T11:48:15.970Z,998.71
2017-09-26T11:49:16.208Z,998.66
2017-09-26T11:50:16.053Z,998.56
2017-09-26T11:51:16.690Z,998.60
2017-09-26T11:52:17.233Z,998.61
2017-09-26T11:53:17.377Z,998.61
2017-09-26T11:54:17.427Z,998.62
2017-09-26T11:55:16.702Z,998.61
2017-09-26T11:56:17.340Z,998.63
2017-09-26T11:57:17.479Z,998.57
2017-09-26T11:58:17.327Z,998.65
2017-09-26T11:59:17.572Z,998.70
2017-09-26T12:00:16.764Z,998.63
2017-09-26T12:01:16.720Z,998.59
2017-09-26T12:02:16.046Z,998.61
2017-09-26T12:03:16.090Z,998.58
2017-09-26T12:04:16.136Z,998.63
2017-09-26T12:05:16.091Z,998.58
2017-09-26T12:06:16.134Z,998.62
2017-09-26T12:07:16.086Z,998.63
2017-09-26T12:08:16.730Z,998.57
2017-09-26T12:09:17.483Z,998.63
2017-09-26T12:10:17.326Z,998.63
2017-09-26T12:11:17.368Z,998.61
2017-09-26T12:12:17.432Z,998.60
2017-09-26T12:13:16.862Z,998.59
2017-09-26T12:14:18.210Z,998.58
2017-09-26T12:15:16.446Z,998.59
2017-09-26T12:16:17.487Z,998.57
2017-09-26T12:17:16.825Z,998.62
2017-09-26T12:18:16.064Z,998.60
2017-09-26T12:19:16.120Z,998.55
2017-09-26T12:20:16.169Z,998.54
2017-09-26T12:21:16.113Z,998.50
2017-09-26T12:22:16.152Z,998.47
2017-09-26T12:23:16.186Z,998.51
2017-09-26T12:24:16.224Z,998.51
2017-09-26T12:25:16.063Z,998.44
2017-09-26T12:26:17.510Z,998.53
2017-09-26T12:27:17.468Z,998.44